• Join FlightAware (Why Join?)
  • Login
  • US Flag 
06:59PM EDT


 

Airport Tracker/Info


-or-


 

Live Flight TrackerFlight Track Log ✈ N894KS ✈ 30-Aug-2013 ✈ KSMO - KSBP

Flight Track Log - Related Links

Times and Time Zones

All times are in EDT time to prevent confusion due to time zone crossing. See the N894KS flight status page for this flight to view local times or setup timezone preferences in your user account.

Time Position Orientation Groundspeed Altitude Reporting Facility
EDT Latitude Longitude Course Direction KTS MPH feet Rate Location/Type
07:27PM 34.0000 -118.4833 271° West 168 193 1,800  Level Southern California TRACON
07:28PM 34.0003 -118.5208 271° West 227 261 2,900 3,000 Climbing Los Angeles Center
07:29PM 33.9756 -118.6044 250° West 267 307 6,500 1,980 Climbing Los Angeles Center
07:30PM 33.9367 -118.6956 243° Southwest 285 328 7,000 840 Climbing Los Angeles Center
07:31PM 33.9233 -118.7800 259° West 284 327 8,300 2,040 Climbing Los Angeles Center
07:32PM 33.9106 -118.8758 261° West 291 335 11,300 2,700 Climbing Los Angeles Center
07:33PM 33.9444 -118.9964 289° West 319 367 14,000 2,220 Climbing Los Angeles Center
07:34PM 33.9792 -119.0983 292° West 332 382 16,000 960 Climbing Los Angeles Center
07:35PM 34.0400 -119.1978 306° West 384 442 16,000 -60 Level Los Angeles Center
07:36PM 34.1175 -119.2886 316° Northwest 389 448 15,900  Descending Los Angeles Center
07:37PM 34.1881 -119.3803 313° West 376 433 16,000  Climbing Los Angeles Center
07:38PM 34.2597 -119.4739 313° West 379 436 15,900 -60 Descending Los Angeles Center
07:39PM 34.3519 -119.5881 314° West 391 450 15,900  Level Los Angeles Center
07:40PM 34.4089 -119.6642 312° West 386 444 16,000  Climbing Los Angeles Center
07:41PM 34.4972 -119.7783 313° West 386 444 16,000  Level Los Angeles Center
07:42PM 34.5714 -119.8725 314° West 387 445 16,000  Level Los Angeles Center
07:43PM 34.6481 -119.9708 313° West 386 444 16,000 -540 Level Los Angeles Center
07:44PM 34.7219 -120.0639 314° West 383 441 14,900 -1,500 Descending Los Angeles Center
07:45PM 34.8003 -120.1503 318° Northwest 372 428 12,900 -2,040 Descending Los Angeles Center
07:46PM 34.8833 -120.2214 325° Northwest 368 423 10,700 -2,040 Descending Los Angeles Center
07:47PM 34.9708 -120.3044 322° Northwest 348 400 8,800 -1,980 Descending Los Angeles Center
07:48PM 35.0319 -120.3619 322° Northwest 307 353 6,700 -1,800 Descending Los Angeles Center
07:49PM 35.0869 -120.4147 322° Northwest 269 310 5,200 -1,500 Descending Los Angeles Center
07:50PM 35.1378 -120.4667 320° Northwest 249 287 3,700 -1,320 Descending Los Angeles Center
07:51PM 35.1742 -120.5297 305° West 235 270 2,500 -1,020 Descending Los Angeles Center
07:53PM 35.2089 -120.5961 303° West 224 258 1,600 -900 Descending Los Angeles Center
07:55PM 35.2333 -120.6333 313° West  Level FlightAware Approximate
08:02PM 35.2373 -120.6426 313° West  Level Estimated